Time;durP1;ratioP1;P1;durP2;ratioP2;P2;SDS_P1;SDS_P2;PMS_P1;PMS_P2;Temp;Humidity;BMP_temperature;BMP_pressure;BME280_temperature;BME280_humidity;BME280_pressure;Samples;Min_cycle;Max_cycle;Signal;HPM_P1;HPM_P2
2022/06/27 00:02:12;;;;;;;5.35;3.55;;;;;;;17.07;96.58;101565.00;4919025;29;20222;-75
2022/06/27 00:04:37;;;;;;;4.65;3.45;;;;;;;17.07;97.17;101565.00;4918944;29;20478;-75
2022/06/27 00:07:03;;;;;;;4.07;3.67;;;;;;;17.08;97.59;101561.38;4919263;29;20043;-75
2022/06/27 00:09:28;;;;;;;6.13;3.90;;;;;;;17.06;97.82;101563.28;4919231;29;20138;-75
2022/06/27 00:11:55;;;;;;;4.63;3.60;;;;;;;17.02;97.61;101561.75;4918633;29;20071;-75
2022/06/27 00:14:21;;;;;;;4.97;3.85;;;;;;;17.04;97.88;101558.03;4902585;29;20067;-74
2022/06/27 00:16:47;;;;;;;5.97;3.85;;;;;;;17.01;98.44;101565.34;4916523;29;20047;-75
2022/06/27 00:19:12;;;;;;;6.32;4.00;;;;;;;16.99;98.74;101567.28;4919510;29;20044;-75
2022/06/27 00:21:38;;;;;;;4.45;3.67;;;;;;;16.99;99.22;101583.31;4919055;29;20404;-75
2022/06/27 00:24:04;;;;;;;6.07;3.90;;;;;;;16.97;99.41;101580.72;4901601;29;20086;-75
2022/06/27 00:26:29;;;;;;;6.35;3.75;;;;;;;16.97;99.81;101578.91;4918727;29;20059;-75
2022/06/27 00:28:55;;;;;;;4.05;3.65;;;;;;;16.97;100.00;101580.72;4918607;29;21505;-75
2022/06/27 00:31:20;;;;;;;4.88;3.67;;;;;;;16.95;99.91;101570.09;4918059;29;20134;-75
2022/06/27 00:33:46;;;;;;;5.72;3.30;;;;;;;16.96;99.99;101579.84;4902623;29;20051;-75
2022/06/27 00:36:11;;;;;;;4.05;3.30;;;;;;;16.94;99.74;101580.94;4899557;29;21442;-75
2022/06/27 00:38:37;;;;;;;5.43;3.72;;;;;;;16.92;99.91;101594.38;4918085;29;20027;-75
2022/06/27 00:41:03;;;;;;;6.55;3.63;;;;;;;16.90;99.76;101590.94;4917855;29;20171;-75
2022/06/27 00:43:28;;;;;;;5.97;3.28;;;;;;;16.89;99.54;101578.50;4899275;29;20178;-75
2022/06/27 00:45:54;;;;;;;5.15;3.67;;;;;;;16.89;99.82;101575.84;4918426;29;20114;-75
2022/06/27 00:48:19;;;;;;;5.25;3.03;;;;;;;16.89;99.91;101573.16;4918481;29;20425;-75
2022/06/27 00:50:45;;;;;;;4.57;3.50;;;;;;;16.86;99.75;101572.47;4916887;29;20118;-75
2022/06/27 00:53:11;;;;;;;4.88;3.33;;;;;;;16.86;100.00;101580.50;4918925;29;20028;-75
2022/06/27 00:55:37;;;;;;;4.28;3.10;;;;;;;16.84;100.00;101588.66;4901264;29;20059;-75
2022/06/27 00:58:03;;;;;;;4.65;3.28;;;;;;;16.82;100.00;101603.91;4902149;29;20126;-75
2022/06/27 01:00:29;;;;;;;5.95;3.30;;;;;;;16.80;100.00;101603.13;4885598;29;20035;-75
2022/06/27 01:02:54;;;;;;;3.30;2.97;;;;;;;16.79;100.00;101617.47;4918131;29;20267;-76
2022/06/27 01:05:20;;;;;;;3.40;2.88;;;;;;;16.79;100.00;101604.09;4918036;29;20063;-75
2022/06/27 01:07:46;;;;;;;5.20;3.35;;;;;;;16.78;100.00;101599.72;4914170;29;20043;-76
2022/06/27 01:10:11;;;;;;;4.45;3.08;;;;;;;16.76;100.00;101609.59;4901133;29;20094;-76
2022/06/27 01:12:42;;;;;;;4.90;3.33;;;;;;;16.75;100.00;101607.91;4917359;29;20044;-76
2022/06/27 01:15:11;;;;;;;4.68;2.83;;;;;;;16.75;99.81;101613.25;4901968;29;20031;-76
2022/06/27 01:17:37;;;;;;;4.20;2.95;;;;;;;16.75;99.35;101613.25;4901784;29;20040;-76
2022/06/27 01:20:03;;;;;;;6.32;3.35;;;;;;;16.77;99.39;101608.69;4901359;29;20042;-76
2022/06/27 01:22:30;;;;;;;5.07;3.55;;;;;;;16.78;99.74;101613.06;4917972;29;20036;-76
2022/06/27 01:24:56;;;;;;;5.78;3.70;;;;;;;16.76;99.30;101615.84;4901516;29;20486;-76
2022/06/27 01:27:22;;;;;;;4.88;3.35;;;;;;;16.75;99.19;101615.91;4917833;29;20186;-76
2022/06/27 01:29:47;;;;;;;6.45;3.25;;;;;;;16.77;99.44;101608.69;4917552;29;20083;-76
2022/06/27 01:32:13;;;;;;;4.88;3.47;;;;;;;16.75;98.96;101603.41;4917713;29;20126;-76
2022/06/27 01:34:38;;;;;;;6.15;3.53;;;;;;;16.75;99.05;101608.78;4917271;29;20928;-76
2022/06/27 01:37:04;;;;;;;4.57;3.55;;;;;;;16.75;98.61;101607.91;4901663;29;20158;-76
2022/06/27 01:39:30;;;;;;;5.65;3.58;;;;;;;16.76;98.74;101601.59;4901670;29;20074;-76
2022/06/27 01:41:59;;;;;;;6.05;3.85;;;;;;;16.77;98.54;101600.66;4897190;29;20122;-76
2022/06/27 01:44:27;;;;;;;5.38;4.13;;;;;;;16.78;98.53;101589.00;4917029;29;20051;-76
2022/06/27 01:46:55;;;;;;;5.80;3.90;;;;;;;16.79;98.95;101590.72;4916593;29;20435;-76
2022/06/27 01:49:21;;;;;;;4.55;3.80;;;;;;;16.81;99.41;101586.13;4917375;29;20031;-76
2022/06/27 01:51:49;;;;;;;5.03;4.03;;;;;;;16.83;99.46;101590.44;4900972;29;20031;-76
2022/06/27 01:54:17;;;;;;;6.70;4.28;;;;;;;16.86;99.75;101604.56;4917376;29;20378;-76
2022/06/27 01:56:46;;;;;;;4.97;4.35;;;;;;;16.86;99.43;101592.06;4917102;29;20548;-76
2022/06/27 01:59:14;;;;;;;5.47;4.28;;;;;;;16.89;99.87;101599.91;4901480;29;20449;-76
2022/06/27 02:01:40;;;;;;;4.82;4.15;;;;;;;16.90;99.68;101606.13;4917766;29;20039;-75
2022/06/27 02:04:06;;;;;;;5.55;4.30;;;;;;;16.90;99.64;101601.66;4916565;29;20027;-76
2022/06/27 02:06:32;;;;;;;6.13;4.40;;;;;;;16.90;99.72;101590.94;4900863;29;20082;-76
2022/06/27 02:08:58;;;;;;;5.60;4.18;;;;;;;16.90;99.67;101582.94;4916221;29;21499;-76
2022/06/27 02:11:25;;;;;;;5.60;4.38;;;;;;;16.91;100.00;101581.97;4916510;29;20043;-76
2022/06/27 02:13:51;;;;;;;5.97;4.38;;;;;;;16.91;100.00;101592.66;4899833;29;20028;-76
2022/06/27 02:16:18;;;;;;;6.75;4.30;;;;;;;16.89;100.00;101586.53;4900398;29;20031;-76
2022/06/27 02:18:45;;;;;;;7.15;4.60;;;;;;;16.89;100.00;101589.19;4900909;29;20036;-76
2022/06/27 02:21:12;;;;;;;7.68;4.80;;;;;;;16.87;100.00;101591.13;4915957;29;20655;-76
2022/06/27 02:23:38;;;;;;;7.00;4.68;;;;;;;16.86;100.00;101577.84;4914945;29;20434;-76
2022/06/27 02:26:07;;;;;;;6.50;5.07;;;;;;;16.84;100.00;101580.63;4916277;29;20095;-76
2022/06/27 02:28:32;;;;;;;5.80;4.55;;;;;;;16.81;100.00;101578.13;4884121;29;20050;-76
2022/06/27 02:30:58;;;;;;;6.18;4.82;;;;;;;16.79;100.00;101577.34;4916424;29;20027;-75
2022/06/27 02:33:32;;;;;;;4.40;4.00;;;;;;;16.77;100.00;101582.78;4897848;29;20114;-75
2022/06/27 02:35:59;;;;;;;7.40;4.60;;;;;;;16.77;100.00;101582.78;4916470;29;20277;-76
2022/06/27 02:38:24;;;;;;;6.63;4.20;;;;;;;16.75;100.00;101571.34;4898881;29;20109;-76
2022/06/27 02:40:50;;;;;;;8.65;4.60;;;;;;;16.75;100.00;101557.09;4915856;29;20039;-76
2022/06/27 02:43:18;;;;;;;5.38;4.28;;;;;;;16.74;100.00;101552.72;4916281;29;20491;-76
2022/06/27 02:45:44;;;;;;;6.18;4.45;;;;;;;16.71;100.00;101551.06;4916169;29;20266;-76
2022/06/27 02:48:11;;;;;;;4.90;4.18;;;;;;;16.67;100.00;101553.06;4887243;29;20036;-76
2022/06/27 02:50:38;;;;;;;6.90;4.30;;;;;;;16.65;100.00;101540.75;4916433;29;20038;-76
2022/06/27 02:53:10;;;;;;;6.10;4.60;;;;;;;16.62;100.00;101544.47;4914654;29;20495;-76
2022/06/27 02:55:40;;;;;;;5.28;4.40;;;;;;;16.62;100.00;101538.28;4899872;29;20046;-76
2022/06/27 02:58:12;;;;;;;5.00;3.97;;;;;;;16.60;100.00;101541.03;4900552;29;20074;-76
2022/06/27 03:00:40;;;;;;;5.68;4.30;;;;;;;16.59;100.00;101543.78;4915739;29;20028;-76
2022/06/27 03:03:11;;;;;;;6.43;4.32;;;;;;;16.56;100.00;101529.66;4915940;29;20155;-76
2022/06/27 03:05:56;;;;;;;5.00;4.45;;;;;;;16.57;100.00;101527.88;4915716;29;20070;-76
2022/06/27 03:08:22;;;;;;;7.88;4.68;;;;;;;16.58;100.00;101532.25;4916085;29;20032;-76
2022/06/27 03:10:48;;;;;;;7.57;4.82;;;;;;;16.59;100.00;101528.63;4898447;29;20090;-76
2022/06/27 03:13:14;;;;;;;6.65;4.35;;;;;;;16.59;100.00;101531.28;4898846;29;20028;-76
2022/06/27 03:15:39;;;;;;;7.85;4.40;;;;;;;16.61;100.00;101536.56;4882790;29;20042;-76
2022/06/27 03:18:05;;;;;;;5.97;4.30;;;;;;;16.61;100.00;101533.88;4914499;29;20040;-76
2022/06/27 03:20:31;;;;;;;6.03;4.82;;;;;;;16.59;100.00;101544.66;4899133;29;20106;-76
2022/06/27 03:22:56;;;;;;;8.18;4.70;;;;;;;16.58;100.00;101542.94;4899687;29;20047;-76
2022/06/27 03:25:22;;;;;;;6.18;4.63;;;;;;;16.58;100.00;101545.63;4915441;29;20067;-76
2022/06/27 03:27:47;;;;;;;5.88;4.85;;;;;;;16.55;100.00;101538.63;4915047;29;20130;-76
2022/06/27 03:30:13;;;;;;;7.50;5.07;;;;;;;16.55;100.00;101538.63;4915742;29;20070;-76
2022/06/27 03:32:38;;;;;;;6.10;5.05;;;;;;;16.56;100.00;101545.69;4915030;29;20094;-76
2022/06/27 03:35:04;;;;;;;5.35;4.57;;;;;;;16.55;100.00;101543.13;4915267;29;20691;-77
2022/06/27 03:37:29;;;;;;;6.70;4.88;;;;;;;16.55;100.00;101543.13;4916293;29;20042;-76
2022/06/27 03:39:55;;;;;;;7.60;5.07;;;;;;;16.54;100.00;101536.91;4914969;29;20463;-76
2022/06/27 03:42:20;;;;;;;6.10;4.90;;;;;;;16.53;100.00;101534.34;4915544;29;20048;-76
2022/06/27 03:44:46;;;;;;;5.88;4.80;;;;;;;16.55;100.00;101532.41;4916041;29;20583;-76
2022/06/27 03:47:11;;;;;;;6.50;4.53;;;;;;;16.57;100.00;101535.88;4915959;29;20172;-76
2022/06/27 03:52:21;;;;;;;5.35;4.35;;;;;;;16.58;100.00;101548.28;4916337;29;20048;-76
2022/06/27 03:54:46;;;;;;;6.13;4.68;;;;;;;16.61;100.00;101542.75;4916359;29;20043;-76
2022/06/27 03:57:12;;;;;;;6.10;5.50;;;;;;;16.63;100.00;101535.53;4916285;28;20702;-76
2022/06/27 03:59:37;;;;;;;13.88;6.00;;;;;;;16.62;100.00;101535.59;4916744;29;20036;-76
2022/06/27 04:02:03;;;;;;;7.03;5.40;;;;;;;16.64;100.00;101537.22;4912089;29;20170;-75
2022/06/27 04:04:29;;;;;;;6.53;5.68;;;;;;;16.64;100.00;101531.88;4915774;28;20054;-76
2022/06/27 04:06:54;;;;;;;7.60;5.57;;;;;;;16.65;100.00;101522.03;4916644;29;20050;-76
2022/06/27 04:09:19;;;;;;;6.50;5.18;;;;;;;16.66;100.00;101513.06;4915462;29;20094;-76
2022/06/27 04:11:45;;;;;;;8.13;4.93;;;;;;;16.67;100.00;101514.81;4898839;29;20047;-75
2022/06/27 04:14:10;;;;;;;8.55;5.60;;;;;;;16.68;100.00;101512.00;4915855;29;20078;-76
2022/06/27 04:16:36;;;;;;;6.90;5.20;;;;;;;16.68;100.00;101517.38;4916076;29;20055;-76
2022/06/27 04:19:01;;;;;;;8.25;5.53;;;;;;;16.67;100.00;101510.31;4915019;29;20546;-76
2022/06/27 04:21:27;;;;;;;7.75;5.40;;;;;;;16.69;100.00;101513.72;4915621;29;20382;-75
2022/06/27 04:23:52;;;;;;;7.13;5.70;;;;;;;16.75;100.00;101511.66;4916294;29;20048;-76
2022/06/27 04:26:18;;;;;;;6.88;4.97;;;;;;;16.76;100.00;101511.56;4915236;29;20039;-76
2022/06/27 04:28:44;;;;;;;7.28;5.18;;;;;;;16.77;100.00;101515.94;4914694;29;20043;-74
2022/06/27 04:31:10;;;;;;;6.75;5.10;;;;;;;16.78;100.00;101506.13;4898410;29;20044;-74
2022/06/27 04:33:35;;;;;;;7.35;5.40;;;;;;;16.78;100.00;101504.28;4915657;29;20047;-74
2022/06/27 04:36:02;;;;;;;7.90;5.80;;;;;;;16.79;100.00;101498.00;4902569;29;20046;-75
2022/06/27 04:38:29;;;;;;;10.57;5.40;;;;;;;16.83;100.00;101504.00;4915021;29;20082;-75
2022/06/27 04:40:54;;;;;;;6.70;5.25;;;;;;;16.86;100.00;101514.53;4897385;29;20083;-75
2022/06/27 04:43:20;;;;;;;8.25;4.82;;;;;;;16.87;100.00;101513.56;4899925;29;20043;-74
2022/06/27 04:45:45;;;;;;;8.13;5.10;;;;;;;16.89;100.00;101511.66;4902334;29;20474;-75
2022/06/27 04:48:12;;;;;;;8.43;5.35;;;;;;;16.94;100.00;101504.22;4918040;29;20035;-74
2022/06/27 04:50:38;;;;;;;7.28;5.43;;;;;;;16.96;100.00;101504.97;4917612;29;20032;-74
2022/06/27 04:53:05;;;;;;;7.72;4.78;;;;;;;17.01;100.00;101501.16;4918694;29;20036;-74
2022/06/27 04:55:30;;;;;;;7.10;5.25;;;;;;;17.02;100.00;101502.91;4916953;29;20126;-74
2022/06/27 04:57:56;;;;;;;7.53;5.07;;;;;;;17.01;100.00;101498.47;4918213;29;21419;-74
2022/06/27 05:00:22;;;;;;;6.85;5.40;;;;;;;17.02;100.00;101503.78;4901957;29;20044;-74
2022/06/27 05:02:48;;;;;;;7.07;5.68;;;;;;;17.00;100.00;101499.44;4918774;29;20043;-74
2022/06/27 05:05:14;;;;;;;8.35;5.18;;;;;;;17.02;100.00;101505.56;4917993;29;20106;-74
2022/06/27 05:07:39;;;;;;;7.47;5.22;;;;;;;17.04;100.00;101506.34;4900929;29;20478;-74
2022/06/27 05:10:06;;;;;;;7.63;5.20;;;;;;;17.09;100.00;101514.94;4918096;29;20028;-74
2022/06/27 05:12:31;;;;;;;6.72;5.15;;;;;;;17.14;100.00;101522.66;4917392;29;20067;-74
2022/06/27 05:14:57;;;;;;;8.15;5.38;;;;;;;17.13;100.00;101527.19;4885259;29;20310;-75
2022/06/27 05:17:24;;;;;;;8.18;5.35;;;;;;;17.13;100.00;101524.50;4918346;29;20126;-74
2022/06/27 05:19:49;;;;;;;5.63;5.03;;;;;;;17.14;100.00;101512.84;4899766;29;20398;-74
2022/06/27 05:22:15;;;;;;;6.43;5.57;;;;;;;17.19;100.00;101501.84;4916352;29;20036;-74
2022/06/27 05:24:40;;;;;;;6.72;5.18;;;;;;;17.22;100.00;101504.34;4917240;29;20031;-74
2022/06/27 05:27:06;;;;;;;6.45;5.47;;;;;;;17.27;100.00;101504.03;4917763;29;20035;-74
2022/06/27 05:29:33;;;;;;;7.35;5.50;;;;;;;17.32;100.00;101504.63;4917422;29;20446;-74
2022/06/27 05:31:59;;;;;;;7.85;5.50;;;;;;;17.34;100.00;101495.50;4916230;29;20471;-74
2022/06/27 05:34:24;;;;;;;8.43;5.95;;;;;;;17.40;100.00;101496.06;4898853;29;20047;-75
2022/06/27 05:36:50;;;;;;;6.97;5.70;;;;;;;17.45;100.00;101500.19;4917481;29;20136;-74
2022/06/27 05:39:16;;;;;;;9.48;6.05;;;;;;;17.53;100.00;101499.69;4901666;29;20082;-74
2022/06/27 05:41:43;;;;;;;6.88;6.13;;;;;;;17.59;100.00;101491.25;4914481;29;20140;-74
2022/06/27 05:44:09;;;;;;;9.63;6.45;;;;;;;17.61;100.00;101481.31;4917765;29;20035;-75
2022/06/27 05:46:37;;;;;;;7.35;6.22;;;;;;;17.66;100.00;101478.34;4917471;29;20036;-75
2022/06/27 05:49:03;;;;;;;7.22;6.25;;;;;;;17.70;100.00;101479.00;4900902;29;20087;-76
2022/06/27 05:51:29;;;;;;;8.68;6.38;;;;;;;17.73;100.00;101466.28;4917473;29;20409;-75
2022/06/27 05:53:57;;;;;;;6.78;5.45;;;;;;;17.78;100.00;101472.16;4901323;29;20028;-76
2022/06/27 05:56:24;;;;;;;8.18;6.18;;;;;;;17.83;100.00;101461.16;4916716;29;20636;-75
2022/06/27 05:58:50;;;;;;;7.78;5.40;;;;;;;17.87;100.00;101456.47;4916975;29;20047;-75
2022/06/27 06:01:17;;;;;;;8.07;5.60;;;;;;;17.83;100.00;101469.19;4885041;29;20055;-76
2022/06/27 06:03:43;;;;;;;8.32;5.95;;;;;;;17.84;100.00;101473.59;4916698;29;20036;-76
2022/06/27 06:06:09;;;;;;;8.27;5.93;;;;;;;17.87;100.00;101475.22;4901097;29;20090;-76
2022/06/27 06:08:36;;;;;;;8.18;5.95;;;;;;;17.86;100.00;101484.22;4885161;29;20027;-76
2022/06/27 06:11:03;;;;;;;6.32;5.43;;;;;;;17.87;100.00;101496.63;4916743;29;20036;-76
2022/06/27 06:13:29;;;;;;;7.07;5.55;;;;;;;17.90;100.00;101494.63;4901501;29;20035;-76
2022/06/27 06:15:57;;;;;;;7.05;5.68;;;;;;;17.97;100.00;101472.78;4916755;29;20428;-75
2022/06/27 06:18:23;;;;;;;6.82;5.95;;;;;;;18.00;100.00;101477.91;4899512;29;20688;-76
2022/06/27 06:20:49;;;;;;;7.25;5.80;;;;;;;18.07;100.00;101468.53;4900938;29;20443;-76
2022/06/27 06:23:14;;;;;;;8.95;6.43;;;;;;;18.12;100.00;101481.59;4916919;29;20064;-76
2022/06/27 06:25:43;;;;;;;9.13;6.75;;;;;;;18.13;100.00;101481.50;4917078;29;20035;-76
2022/06/27 06:28:08;;;;;;;11.50;7.57;;;;;;;18.20;100.00;101495.38;4899432;29;20546;-76
2022/06/27 06:30:34;;;;;;;9.52;8.05;;;;;;;18.23;100.00;101492.47;4898448;29;20252;-76
2022/06/27 06:33:04;;;;;;;10.13;7.70;;;;;;;18.24;100.00;101501.38;4883757;29;20036;-76
2022/06/27 06:35:30;;;;;;;11.27;8.70;;;;;;;18.26;100.00;101516.38;4901033;29;20036;-75
2022/06/27 06:37:57;;;;;;;11.30;8.93;;;;;;;18.25;100.00;101530.72;4899985;29;20043;-75
2022/06/27 06:40:23;;;;;;;10.75;8.52;;;;;;;18.24;100.00;101518.31;4916403;29;20055;-76
2022/06/27 06:42:48;;;;;;;11.52;8.25;;;;;;;18.25;100.00;101524.53;4916178;29;20051;-75
2022/06/27 06:45:14;;;;;;;11.40;8.55;;;;;;;18.24;100.00;101534.38;4916010;29;20118;-75
2022/06/27 06:47:44;;;;;;;13.23;8.75;;;;;;;18.28;100.00;101538.59;4916657;29;20059;-75
2022/06/27 06:50:13;;;;;;;12.55;8.90;;;;;;;18.30;100.00;101550.06;4915856;29;20127;-76
2022/06/27 06:52:41;;;;;;;12.23;8.63;;;;;;;18.32;100.00;101558.84;4916194;29;20715;-76
2022/06/27 06:55:11;;;;;;;12.93;8.98;;;;;;;18.33;100.00;101573.09;4915617;29;20036;-75
2022/06/27 06:57:38;;;;;;;12.32;8.32;;;;;;;18.31;100.00;101565.16;4915890;29;20051;-75
2022/06/27 07:00:05;;;;;;;12.82;7.85;;;;;;;18.24;100.00;101555.81;4899469;29;20046;-75
2022/06/27 07:02:32;;;;;;;12.05;7.97;;;;;;;18.24;100.00;101550.47;4915945;29;20063;-75
2022/06/27 07:04:58;;;;;;;11.02;7.88;;;;;;;18.26;100.00;101579.84;4916243;29;20036;-75
2022/06/27 07:07:25;;;;;;;10.88;7.25;;;;;;;18.25;100.00;101603.09;4915183;29;20150;-75
2022/06/27 07:09:52;;;;;;;11.82;8.63;;;;;;;18.26;100.00;101604.81;4915611;29;20785;-75
2022/06/27 07:12:18;;;;;;;12.65;8.30;;;;;;;18.26;100.00;101594.09;4908983;29;20423;-75
2022/06/27 07:14:45;;;;;;;9.88;7.50;;;;;;;18.26;100.00;101594.09;4915794;29;20122;-75
2022/06/27 07:17:11;;;;;;;8.98;7.00;;;;;;;18.27;100.00;101594.97;4915838;29;20044;-75
2022/06/27 07:19:38;;;;;;;7.60;6.80;;;;;;;18.26;100.00;101585.19;4916111;29;20035;-75
2022/06/27 07:22:05;;;;;;;9.48;6.82;;;;;;;18.26;100.00;101580.69;4915854;29;20594;-75
2022/06/27 07:24:30;;;;;;;7.15;6.03;;;;;;;18.26;100.00;101586.03;4915417;29;20055;-75
2022/06/27 07:26:57;;;;;;;8.75;6.13;;;;;;;18.27;100.00;101582.44;4916487;28;20031;-75
2022/06/27 07:29:23;;;;;;;6.10;5.47;;;;;;;18.27;100.00;101590.47;4914743;29;20473;-75
2022/06/27 07:31:48;;;;;;;8.15;5.78;;;;;;;18.30;100.00;101584.88;4915478;29;20250;-75
2022/06/27 07:34:17;;;;;;;6.68;5.13;;;;;;;18.32;100.00;101592.84;4900770;29;20083;-75
2022/06/27 07:36:43;;;;;;;7.43;5.10;;;;;;;18.33;100.00;101583.81;4915739;29;20038;-75
2022/06/27 07:39:09;;;;;;;5.90;4.82;;;;;;;18.34;100.00;101582.88;4915982;29;20035;-75
2022/06/27 07:41:34;;;;;;;6.28;4.65;;;;;;;18.34;100.00;101582.03;4914813;29;20111;-74
2022/06/27 07:44:02;;;;;;;7.43;5.45;;;;;;;18.33;100.00;101559.72;4915573;29;20099;-75
2022/06/27 07:46:27;;;;;;;8.48;5.53;;;;;;;18.31;100.00;101554.44;4912662;29;20044;-75
2022/06/27 07:48:53;;;;;;;8.13;5.55;;;;;;;18.31;100.00;101545.56;4898934;29;20517;-75
2022/06/27 07:51:21;;;;;;;5.57;4.82;;;;;;;18.28;100.00;101533.22;4893955;29;20047;-82
2022/06/27 07:53:48;;;;;;;6.25;5.57;;;;;;;18.30;100.00;101520.56;4880128;29;20157;-75
2022/06/27 07:56:16;;;;;;;6.47;5.78;;;;;;;18.29;100.00;101500.09;4912884;29;20565;-75
2022/06/27 07:58:42;;;;;;;8.07;5.88;;;;;;;18.29;100.00;101477.78;4914168;29;20127;-75
2022/06/27 08:01:09;;;;;;;8.10;5.75;;;;;;;18.28;100.00;101489.47;4915301;29;20032;-75
2022/06/27 08:03:36;;;;;;;7.45;5.38;;;;;;;18.28;100.00;101506.44;4896256;29;20044;-76
2022/06/27 08:06:05;;;;;;;8.50;5.55;;;;;;;18.30;100.00;101511.69;4897135;29;20368;-75
2022/06/27 08:08:33;;;;;;;8.30;5.65;;;;;;;18.30;99.90;101523.25;4909650;29;20062;-76
2022/06/27 08:10:59;;;;;;;8.98;6.00;;;;;;;18.32;99.42;101518.63;4895433;29;20122;-75
2022/06/27 08:13:26;;;;;;;7.70;5.57;;;;;;;18.32;99.61;101518.63;4913507;29;20119;-75
2022/06/27 08:15:53;;;;;;;9.18;5.63;;;;;;;18.33;99.21;101522.19;4914395;29;20036;-76
2022/06/27 08:18:20;;;;;;;7.95;6.32;;;;;;;18.37;99.21;101533.56;4895829;29;20174;-75
2022/06/27 08:20:46;;;;;;;7.55;5.65;;;;;;;18.38;99.13;101541.50;4917225;29;20461;-75
2022/06/27 08:23:13;;;;;;;8.73;6.07;;;;;;;18.41;98.97;101553.84;4918121;29;20268;-76
2022/06/27 08:25:41;;;;;;;8.57;5.90;;;;;;;18.42;98.77;101545.66;4917420;29;20061;-76
2022/06/27 08:28:08;;;;;;;8.30;5.85;;;;;;;18.42;98.13;101547.50;4918284;29;20023;-76
2022/06/27 08:30:34;;;;;;;7.63;5.53;;;;;;;18.46;98.71;101551.69;4899984;29;20118;-76
2022/06/27 08:33:00;;;;;;;8.52;6.15;;;;;;;18.50;98.28;101561.25;4917912;29;20042;-76
2022/06/27 08:35:26;;;;;;;7.07;5.85;;;;;;;18.52;98.14;101575.41;4917619;29;20039;-77
2022/06/27 08:37:52;;;;;;;7.80;6.05;;;;;;;18.50;97.48;101576.47;4915708;29;20107;-76
2022/06/27 08:40:19;;;;;;;8.70;5.88;;;;;;;18.51;98.04;101580.88;4899843;29;20067;-76
2022/06/27 08:42:45;;;;;;;9.45;5.85;;;;;;;18.54;98.25;101570.81;4918570;29;20070;-77
2022/06/27 08:45:14;;;;;;;7.45;5.95;;;;;;;18.65;98.66;101570.06;4917294;29;20035;-76
2022/06/27 08:47:41;;;;;;;7.45;5.82;;;;;;;18.77;98.74;101573.72;4915319;29;20039;-77
2022/06/27 08:50:08;;;;;;;7.03;5.53;;;;;;;18.87;98.29;101590.06;4917083;29;20410;-76
2022/06/27 08:52:39;;;;;;;7.32;5.78;;;;;;;18.97;97.73;101607.22;4915516;29;20047;-76
2022/06/27 08:55:08;;;;;;;8.30;5.38;;;;;;;19.09;97.26;101608.22;4917771;29;20035;-77
2022/06/27 08:57:41;;;;;;;6.53;5.80;;;;;;;19.26;97.43;101606.19;4899741;29;20047;-77
2022/06/27 09:00:12;;;;;;;8.70;5.30;;;;;;;19.36;96.17;101604.56;4908554;29;20055;-76
2022/06/27 09:02:44;;;;;;;6.13;5.32;;;;;;;19.44;95.58;101595.97;4917532;29;20038;-83
2022/06/27 09:05:24;;;;;;;7.97;4.50;;;;;;;19.49;94.50;101601.00;4902360;29;20035;-87
2022/06/27 09:08:04;;;;;;;7.68;5.05;;;;;;;19.52;93.80;101592.72;4901876;29;20024;-85
2022/06/27 09:10:35;;;;;;;7.32;5.60;;;;;;;19.58;93.85;101599.47;4895651;29;20078;-88
2022/06/27 09:13:09;;;;;;;6.55;5.40;;;;;;;19.60;93.63;101587.66;4916968;29;20044;-88
2022/06/27 09:15:48;;;;;;;7.50;5.38;;;;;;;19.59;93.27;101585.94;4878525;29;20031;-88
2022/06/27 09:18:17;;;;;;;6.47;5.13;;;;;;;19.63;93.42;101565.09;4896146;29;20035;-88
2022/06/27 09:20:55;;;;;;;7.97;5.85;;;;;;;19.83;93.81;101563.63;4915547;29;20678;-87
2022/06/27 09:23:32;;;;;;;7.20;5.07;;;;;;;19.95;93.91;101565.44;4915842;29;20039;-84
2022/06/27 09:26:06;;;;;;;6.43;5.22;;;;;;;20.09;93.80;101577.00;4913190;29;20042;-83
2022/06/27 09:28:41;;;;;;;5.18;4.43;;;;;;;20.18;91.66;101580.84;4884316;29;20450;-80
2022/06/27 09:31:13;;;;;;;5.07;4.05;;;;;;;20.21;88.37;101588.69;4899964;29;20403;-80
2022/06/27 09:33:41;;;;;;;7.55;4.55;;;;;;;20.26;88.83;101602.63;4901349;29;20039;-80
2022/06/27 09:36:14;;;;;;;6.43;4.22;;;;;;;20.28;88.38;101611.44;4916901;29;20070;-80
2022/06/27 09:38:41;;;;;;;4.60;4.05;;;;;;;20.39;89.24;101612.44;4883938;29;20091;-82
2022/06/27 09:41:11;;;;;;;5.90;3.63;;;;;;;20.46;87.81;101611.88;4899051;29;20046;-82
2022/06/27 09:43:41;;;;;;;5.38;3.58;;;;;;;20.45;86.29;101596.72;4917178;29;20039;-80
2022/06/27 09:46:07;;;;;;;5.68;4.25;;;;;;;20.48;87.11;101603.66;4916476;29;20478;-81
2022/06/27 09:48:34;;;;;;;4.97;3.88;;;;;;;20.44;86.63;101618.34;4915442;29;20473;-81
2022/06/27 09:51:01;;;;;;;4.10;3.20;;;;;;;20.42;86.79;101623.81;4900939;29;20034;-81
2022/06/27 09:53:27;;;;;;;5.90;3.17;;;;;;;20.43;85.25;101633.59;4897493;29;20048;-82
2022/06/27 09:55:54;;;;;;;4.03;3.38;;;;;;;20.38;83.65;101625.06;4899497;29;20078;-80
2022/06/27 09:58:20;;;;;;;6.78;3.60;;;;;;;20.35;84.35;101617.19;4881954;29;20482;-80
2022/06/27 10:00:47;;;;;;;4.70;3.60;;;;;;;20.37;84.33;101615.25;4899190;29;20099;-80
2022/06/27 10:03:13;;;;;;;4.85;3.80;;;;;;;20.38;84.16;101616.13;4898722;29;20645;-81
2022/06/27 10:05:40;;;;;;;4.18;3.78;;;;;;;20.34;83.77;101619.03;4915762;29;20135;-81
2022/06/27 10:08:06;;;;;;;4.68;3.85;;;;;;;20.35;83.62;101627.94;4916515;29;20160;-81
2022/06/27 10:11:00;;;;;;;4.50;3.17;;;;;;;20.37;83.27;101630.53;4916156;29;20136;-81
2022/06/27 10:13:28;;;;;;;4.47;3.42;;;;;;;20.38;84.30;101637.63;4915801;29;20043;-78
2022/06/27 10:15:57;;;;;;;5.28;3.30;;;;;;;20.39;83.45;101648.28;4913843;29;20079;-80
2022/06/27 10:18:23;;;;;;;4.20;2.70;;;;;;;20.39;83.04;101645.59;4912053;29;20034;-80
2022/06/27 10:20:51;;;;;;;3.78;2.92;;;;;;;20.39;82.84;101648.28;4915941;29;20374;-81
2022/06/27 10:23:26;;;;;;;5.00;3.63;;;;;;;20.43;82.55;101638.16;4901180;29;20028;-80
2022/06/27 10:25:52;;;;;;;4.65;3.03;;;;;;;20.47;83.17;101629.72;4916048;29;20032;-81
2022/06/27 10:28:20;;;;;;;4.45;3.20;;;;;;;20.52;83.01;101637.44;4915098;29;20042;-80
2022/06/27 10:30:51;;;;;;;5.97;3.35;;;;;;;20.48;81.37;101636.81;4899524;29;20063;-82
2022/06/27 10:33:23;;;;;;;3.33;2.38;;;;;;;20.52;81.39;101636.59;4901021;29;20601;-81
2022/06/27 10:35:55;;;;;;;3.45;3.03;;;;;;;20.54;80.60;101650.78;4914884;29;20103;-82
2022/06/27 10:38:39;;;;;;;4.85;2.67;;;;;;;20.59;80.72;101659.38;4898375;29;20407;-81
2022/06/27 10:41:10;;;;;;;3.95;2.50;;;;;;;20.63;79.58;101647.38;4914750;29;20167;-81
2022/06/27 10:43:36;;;;;;;4.10;2.80;;;;;;;20.66;78.86;101640.91;4899861;29;20046;-82
2022/06/27 10:46:10;;;;;;;4.38;2.67;;;;;;;20.67;78.67;101645.31;4898696;29;20039;-81
2022/06/27 10:48:38;;;;;;;2.95;2.17;;;;;;;20.65;78.16;101626.63;4914495;29;20261;-81
2022/06/27 10:51:24;;;;;;;4.32;2.83;;;;;;;20.64;76.34;101630.25;4914029;29;20043;-82
2022/06/27 10:53:52;;;;;;;2.55;2.35;;;;;;;20.59;78.66;101627.09;4914336;29;20027;-84
2022/06/27 10:56:31;;;;;;;3.72;2.50;;;;;;;20.51;75.67;101629.47;4916564;28;20028;-83
2022/06/27 10:59:03;;;;;;;3.95;2.80;;;;;;;20.36;76.73;101629.66;4916613;29;20039;-84
2022/06/27 11:01:30;;;;;;;3.83;2.70;;;;;;;20.34;77.46;101634.31;4893207;29;20066;-82
2022/06/27 11:03:55;;;;;;;4.68;2.72;;;;;;;20.30;77.57;101630.13;4915693;29;20125;-83
2022/06/27 11:06:22;;;;;;;4.22;2.95;;;;;;;20.28;77.62;101629.38;4897149;29;20118;-83
2022/06/27 11:08:52;;;;;;;3.28;2.70;;;;;;;20.27;77.84;101625.00;4915183;29;20039;-83
2022/06/27 11:11:23;;;;;;;2.63;2.28;;;;;;;20.28;77.83;101621.31;4915498;29;20644;-82
2022/06/27 11:13:54;;;;;;;3.22;2.40;;;;;;;20.30;77.56;101627.44;4900054;29;20036;-84
2022/06/27 11:16:25;;;;;;;4.63;3.00;;;;;;;20.30;76.31;101612.19;4911997;29;20032;-81
2022/06/27 11:18:58;;;;;;;3.10;2.77;;;;;;;20.30;76.99;101614.00;4913036;29;20039;-81
2022/06/27 11:21:27;;;;;;;5.22;3.15;;;;;;;20.26;76.85;101615.22;4898069;29;20123;-81
2022/06/27 11:24:02;;;;;;;3.65;2.75;;;;;;;20.21;77.05;101616.41;4915697;29;20096;-80